Time;durP1;ratioP1;P1;durP2;ratioP2;P2;SDS_P1;SDS_P2;PMS_P1;PMS_P2;Temp;Humidity;BMP_temperature;BMP_pressure;BME280_temperature;BME280_humidity;BME280_pressure;Samples;Min_cycle;Max_cycle;Signal;HPM_P1;HPM_P2
2023/05/02 00:00:27;;;;;;;7.15;2.40;;;;;;;;;;5036210;28;20068;-63
2023/05/02 00:02:58;;;;;;;9.60;2.47;;;;;;;;;;5050247;28;20053;-64
2023/05/02 00:05:28;;;;;;;8.45;2.42;;;;;;;;;;4962040;28;20061;-63
2023/05/02 00:07:59;;;;;;;6.90;2.72;;;;;;;;;;5010592;28;20415;-63
2023/05/02 00:10:30;;;;;;;9.00;3.20;;;;;;;;;;5021196;28;20054;-63
2023/05/02 00:13:00;;;;;;;5.15;2.65;;;;;;;;;;5030394;28;20057;-64
2023/05/02 00:15:30;;;;;;;4.75;2.45;;;;;;;;;;5030350;28;20064;-64
2023/05/02 00:18:00;;;;;;;7.25;2.60;;;;;;;;;;5030067;28;20049;-64
2023/05/02 00:20:31;;;;;;;6.63;2.40;;;;;;;;;;4998770;28;20061;-63
2023/05/02 00:23:01;;;;;;;5.65;2.78;;;;;;;;;;5014359;28;20068;-63
2023/05/02 00:25:31;;;;;;;9.98;2.55;;;;;;;;;;5030222;28;20045;-63
2023/05/02 00:28:02;;;;;;;5.32;2.22;;;;;;;;;;5048691;28;20049;-64
2023/05/02 00:30:33;;;;;;;5.60;2.10;;;;;;;;;;5070301;28;20071;-63
2023/05/02 00:33:05;;;;;;;7.45;2.92;;;;;;;;;;5069885;28;20048;-63
2023/05/02 00:35:36;;;;;;;10.18;2.60;;;;;;;;;;5038111;28;20496;-63
2023/05/02 00:38:07;;;;;;;6.57;2.40;;;;;;;;;;5070057;28;20550;-63
2023/05/02 00:40:47;;;;;;;7.53;2.20;;;;;;;;;;5053280;28;20571;-63
2023/05/02 00:43:20;;;;;;;5.40;2.38;;;;;;;;;;5065254;28;20531;-63
2023/05/02 00:45:50;;;;;;;6.00;2.95;;;;;;;;;;5013172;28;20049;-64
2023/05/02 00:48:22;;;;;;;6.15;2.33;;;;;;;;;;5029591;28;20064;-63
2023/05/02 00:50:52;;;;;;;7.57;2.17;;;;;;;;;;5049488;28;20056;-63
2023/05/02 00:53:22;;;;;;;6.28;2.28;;;;;;;;;;5009673;28;20098;-63
2023/05/02 00:55:53;;;;;;;6.72;2.47;;;;;;;;;;4977128;28;20054;-63
2023/05/02 00:58:24;;;;;;;12.38;2.40;;;;;;;;;;5009739;28;20066;-63
2023/05/02 01:01:36;;;;;;;5.85;2.70;;;;;;;;;;4945758;28;20048;-63
2023/05/02 01:04:39;;;;;;;10.32;2.50;;;;;;;;;;5009801;28;20062;-63
2023/05/02 01:07:18;;;;;;;8.52;2.30;;;;;;;;;;4961135;28;20054;-63
2023/05/02 01:10:11;;;;;;;7.88;2.53;;;;;;;;;;5009687;28;20514;-63
2023/05/02 01:12:47;;;;;;;14.18;3.00;;;;;;;;;;4970590;28;20061;-63
2023/05/02 01:15:21;;;;;;;7.93;2.80;;;;;;;;;;4900370;29;20432;-63
2023/05/02 01:17:55;;;;;;;20.85;2.88;;;;;;;;;;4900621;29;20692;-63
2023/05/02 01:20:28;;;;;;;7.28;2.42;;;;;;;;;;4909234;29;20048;-63
2023/05/02 01:23:06;;;;;;;10.95;2.53;;;;;;;;;;4839680;29;20052;-63
2023/05/02 01:26:01;;;;;;;6.55;2.45;;;;;;;;;;4912714;29;20056;-63
2023/05/02 01:28:54;;;;;;;11.70;2.95;;;;;;;;;;4874931;29;20511;-63
2023/05/02 01:31:35;;;;;;;10.65;2.30;;;;;;;;;;4850185;29;20054;-63
2023/05/02 01:34:09;;;;;;;13.00;2.58;;;;;;;;;;4856435;29;20054;-62
2023/05/02 01:36:44;;;;;;;8.27;2.17;;;;;;;;;;4856666;29;20061;-63
2023/05/02 01:39:19;;;;;;;13.85;2.67;;;;;;;;;;4855931;29;20050;-64
2023/05/02 01:41:52;;;;;;;12.18;2.60;;;;;;;;;;4840971;29;20518;-64
2023/05/02 01:44:23;;;;;;;7.75;2.80;;;;;;;;;;4856670;29;20054;-63
2023/05/02 01:46:55;;;;;;;7.30;2.10;;;;;;;;;;4856648;29;20068;-63
2023/05/02 01:49:28;;;;;;;9.52;2.88;;;;;;;;;;4846945;29;20747;-63
2023/05/02 01:52:04;;;;;;;9.45;2.22;;;;;;;;;;4874856;29;20057;-63
2023/05/02 01:54:36;;;;;;;6.70;2.97;;;;;;;;;;4845236;29;20053;-63
2023/05/02 01:57:09;;;;;;;5.65;2.38;;;;;;;;;;4860977;29;20061;-64
2023/05/02 01:59:41;;;;;;;8.45;2.72;;;;;;;;;;4876510;29;20060;-63
2023/05/02 02:02:13;;;;;;;8.43;2.97;;;;;;;;;;4893210;29;20057;-64
2023/05/02 02:04:48;;;;;;;8.30;3.10;;;;;;;;;;4878659;29;20377;-63
2023/05/02 02:07:19;;;;;;;9.88;3.05;;;;;;;;;;4908760;29;20052;-63
2023/05/02 02:09:49;;;;;;;10.00;2.70;;;;;;;;;;4889535;29;20047;-63
2023/05/02 02:12:47;;;;;;;9.13;2.80;;;;;;;;;;4900746;29;20051;-63
2023/05/02 02:15:26;;;;;;;9.32;2.88;;;;;;;;;;4892994;29;20052;-63
2023/05/02 02:18:27;;;;;;;11.30;2.58;;;;;;;;;;4877652;29;20064;-63
2023/05/02 02:20:59;;;;;;;6.20;2.65;;;;;;;;;;4877301;29;20053;-63
2023/05/02 02:23:32;;;;;;;6.00;2.30;;;;;;;;;;4912029;29;20075;-63
2023/05/02 02:26:04;;;;;;;8.50;2.35;;;;;;;;;;4877092;29;20056;-63
2023/05/02 02:28:34;;;;;;;;;;;;;;;;;;4862455;29;20068;-63
2023/05/02 02:31:05;;;;;;;12.80;3.25;;;;;;;;;;4892648;29;19930;-63
2023/05/02 02:33:36;;;;;;;9.75;2.35;;;;;;;;;;4892950;29;20413;-63
2023/05/02 02:36:15;;;;;;;7.65;2.20;;;;;;;;;;4874100;29;20053;-63
2023/05/02 02:39:00;;;;;;;9.63;2.47;;;;;;;;;;4872476;29;20425;-63
2023/05/02 02:41:44;;;;;;;11.40;2.35;;;;;;;;;;4837143;29;20550;-63
2023/05/02 02:44:30;;;;;;;8.10;2.42;;;;;;;;;;4852385;29;20415;-63
2023/05/02 02:47:06;;;;;;;;;;;;;;;;;;4832686;29;20085;-63
2023/05/02 02:50:09;;;;;;;8.95;2.55;;;;;;;;;;4819296;29;19925;-63
2023/05/02 02:53:02;;;;;;;9.40;2.75;;;;;;;;;;4860129;29;20049;-63
2023/05/02 02:55:46;;;;;;;10.35;2.55;;;;;;;;;;4878411;29;20061;-63
2023/05/02 02:58:25;;;;;;;5.90;2.72;;;;;;;;;;4930691;29;20066;-63
2023/05/02 03:00:56;;;;;;;6.95;2.70;;;;;;;;;;4937018;28;20066;-63
2023/05/02 03:03:28;;;;;;;5.60;2.75;;;;;;;;;;4969001;28;20061;-63
2023/05/02 03:05:59;;;;;;;7.10;2.53;;;;;;;;;;5012152;28;20058;-63
2023/05/02 03:08:42;;;;;;;4.55;2.25;;;;;;;;;;4963550;28;20122;-63
2023/05/02 03:11:17;;;;;;;9.10;2.70;;;;;;;;;;5042876;28;20057;-63
2023/05/02 03:13:48;;;;;;;7.45;2.53;;;;;;;;;;5062728;28;20504;-64
2023/05/02 03:16:31;;;;;;;8.93;2.67;;;;;;;;;;5043951;28;20495;-64
2023/05/02 03:19:03;;;;;;;6.68;2.22;;;;;;;;;;5071354;28;20056;-63
2023/05/02 03:21:35;;;;;;;;;;;;;;;;;;5038966;28;20060;-63
2023/05/02 03:24:17;;;;;;;6.50;2.45;;;;;;;;;;5060847;28;19920;-63
2023/05/02 03:26:49;;;;;;;4.47;2.33;;;;;;;;;;5031278;28;20054;-63
2023/05/02 03:29:24;;;;;;;7.40;2.80;;;;;;;;;;4956946;28;20095;-63
2023/05/02 03:31:55;;;;;;;6.95;2.53;;;;;;;;;;5011227;28;20406;-63
2023/05/02 03:34:25;;;;;;;11.25;2.00;;;;;;;;;;5011166;28;20057;-63
2023/05/02 03:36:56;;;;;;;5.28;2.17;;;;;;;;;;4994723;28;20049;-63
2023/05/02 03:39:26;;;;;;;6.55;2.95;;;;;;;;;;4991591;28;20541;-63
2023/05/02 03:41:56;;;;;;;8.05;2.22;;;;;;;;;;4991716;28;20058;-63
2023/05/02 03:44:26;;;;;;;6.28;2.42;;;;;;;;;;4972107;28;20514;-63
2023/05/02 03:46:57;;;;;;;8.60;2.72;;;;;;;;;;4902097;29;20047;-63
2023/05/02 03:49:28;;;;;;;8.10;2.50;;;;;;;;;;4933375;29;20051;-63
2023/05/02 03:51:58;;;;;;;9.38;2.83;;;;;;;;;;4947257;29;20075;-63
2023/05/02 03:54:33;;;;;;;11.13;2.92;;;;;;;;;;4917283;29;20509;-63
2023/05/02 03:57:04;;;;;;;7.25;2.75;;;;;;;;;;4876778;29;20502;-63
2023/05/02 03:59:34;;;;;;;5.85;2.53;;;;;;;;;;4895218;29;20052;-64
2023/05/02 04:02:14;;;;;;;6.38;2.42;;;;;;;;;;4876234;29;20088;-63
2023/05/02 04:04:48;;;;;;;8.73;2.72;;;;;;;;;;4876450;29;20052;-63
2023/05/02 04:07:21;;;;;;;7.82;2.55;;;;;;;;;;4849728;29;20050;-63
2023/05/02 04:09:58;;;;;;;9.90;2.88;;;;;;;;;;4882128;29;20041;-64
2023/05/02 04:12:31;;;;;;;5.70;2.85;;;;;;;;;;4907882;29;20052;-63
2023/05/02 04:15:03;;;;;;;5.55;2.78;;;;;;;;;;4916615;29;20060;-63
2023/05/02 04:17:34;;;;;;;11.95;3.30;;;;;;;;;;4914039;29;20501;-63
2023/05/02 04:20:06;;;;;;;8.23;2.78;;;;;;;;;;4879532;29;20052;-63
2023/05/02 04:22:40;;;;;;;15.68;3.30;;;;;;;;;;4867800;29;20062;-64
2023/05/02 04:25:12;;;;;;;8.95;2.85;;;;;;;;;;4919862;29;20053;-63
2023/05/02 04:27:43;;;;;;;6.65;2.70;;;;;;;;;;4908548;29;20094;-63
2023/05/02 04:30:16;;;;;;;9.15;2.63;;;;;;;;;;4932459;29;20048;-63
2023/05/02 04:32:56;;;;;;;8.63;2.97;;;;;;;;;;4917836;29;20441;-63
2023/05/02 04:35:30;;;;;;;8.63;3.35;;;;;;;;;;4901716;29;20079;-64
2023/05/02 04:38:00;;;;;;;6.03;2.42;;;;;;;;;;4898506;29;20056;-63
2023/05/02 04:40:32;;;;;;;8.50;2.80;;;;;;;;;;4883708;29;20053;-64
2023/05/02 04:43:06;;;;;;;7.40;2.95;;;;;;;;;;4908853;29;20053;-63
2023/05/02 04:45:42;;;;;;;8.52;2.40;;;;;;;;;;4908061;29;20052;-63
2023/05/02 04:48:20;;;;;;;4.80;2.53;;;;;;;;;;4898699;29;20056;-63
2023/05/02 04:50:55;;;;;;;4.95;2.58;;;;;;;;;;4875596;29;20059;-63
2023/05/02 04:53:27;;;;;;;8.52;2.65;;;;;;;;;;4894408;29;20052;-63
2023/05/02 04:55:57;;;;;;;7.15;2.53;;;;;;;;;;4895138;29;20049;-63
2023/05/02 04:58:28;;;;;;;6.75;2.80;;;;;;;;;;4898423;29;20060;-63
2023/05/02 05:01:04;;;;;;;9.93;3.13;;;;;;;;;;4912877;29;20096;-63
2023/05/02 05:03:35;;;;;;;7.53;2.97;;;;;;;;;;4917250;29;20052;-63
2023/05/02 05:06:07;;;;;;;6.75;2.63;;;;;;;;;;4909220;29;20052;-63
2023/05/02 05:08:38;;;;;;;5.25;2.60;;;;;;;;;;4878613;29;20052;-63
2023/05/02 05:11:09;;;;;;;8.60;2.83;;;;;;;;;;4936798;29;20048;-62
2023/05/02 05:13:40;;;;;;;5.13;2.50;;;;;;;;;;4944344;28;20047;-64
2023/05/02 05:16:13;;;;;;;5.20;2.83;;;;;;;;;;4962236;28;20052;-63
2023/05/02 05:18:44;;;;;;;9.45;2.85;;;;;;;;;;4893392;29;20516;-63
2023/05/02 05:21:15;;;;;;;10.48;2.92;;;;;;;;;;4995558;28;20054;-63
2023/05/02 05:23:47;;;;;;;7.70;2.75;;;;;;;;;;4970318;28;20121;-63
2023/05/02 05:26:24;;;;;;;9.20;3.35;;;;;;;;;;4940030;28;20059;-63
2023/05/02 05:28:55;;;;;;;10.48;2.83;;;;;;;;;;4949530;28;20055;-62
2023/05/02 05:31:28;;;;;;;5.57;2.55;;;;;;;;;;4946629;28;20410;-63
2023/05/02 05:34:01;;;;;;;6.47;3.10;;;;;;;;;;4918910;29;20068;-62
2023/05/02 05:36:31;;;;;;;7.93;3.13;;;;;;;;;;4924664;29;20504;-62
2023/05/02 05:39:03;;;;;;;5.93;2.25;;;;;;;;;;4950643;29;20550;-63
2023/05/02 05:41:37;;;;;;;4.90;2.55;;;;;;;;;;4907592;29;20059;-63
2023/05/02 05:44:10;;;;;;;6.40;3.13;;;;;;;;;;4931295;29;20552;-64
2023/05/02 05:46:40;;;;;;;7.97;2.90;;;;;;;;;;4899867;29;20552;-62
2023/05/02 05:49:12;;;;;;;5.15;2.80;;;;;;;;;;4893338;29;20064;-63
2023/05/02 05:51:43;;;;;;;6.85;2.90;;;;;;;;;;4911823;29;20052;-63
2023/05/02 05:54:15;;;;;;;8.02;2.78;;;;;;;;;;4926281;29;20071;-63
2023/05/02 05:56:45;;;;;;;12.32;3.20;;;;;;;;;;4865589;29;20553;-62
2023/05/02 05:59:18;;;;;;;5.97;3.28;;;;;;;;;;4823837;29;20058;-63
2023/05/02 06:01:49;;;;;;;5.57;2.72;;;;;;;;;;4819373;29;20557;-62
2023/05/02 06:04:22;;;;;;;8.73;2.58;;;;;;;;;;4826565;29;20088;-62
2023/05/02 06:06:54;;;;;;;6.82;2.92;;;;;;;;;;4844770;29;20162;-62
2023/05/02 06:09:24;;;;;;;5.90;2.17;;;;;;;;;;4868178;29;20061;-62
2023/05/02 06:11:54;;;;;;;8.73;2.92;;;;;;;;;;4897760;29;20092;-62
2023/05/02 06:14:25;;;;;;;5.05;2.70;;;;;;;;;;4930772;29;20523;-63
2023/05/02 06:16:57;;;;;;;7.53;3.08;;;;;;;;;;4911807;29;20059;-63
2023/05/02 06:19:28;;;;;;;6.20;2.92;;;;;;;;;;4912070;29;20532;-63
2023/05/02 06:21:58;;;;;;;4.90;2.92;;;;;;;;;;4932750;29;20550;-62
2023/05/02 06:24:28;;;;;;;5.18;2.55;;;;;;;;;;4948461;28;20074;-63
2023/05/02 06:26:59;;;;;;;6.43;2.80;;;;;;;;;;4933817;29;20055;-63
2023/05/02 06:29:29;;;;;;;5.90;2.47;;;;;;;;;;4944299;28;20055;-62
2023/05/02 06:31:59;;;;;;;7.88;2.47;;;;;;;;;;4969388;28;20078;-63
2023/05/02 06:34:32;;;;;;;5.85;2.80;;;;;;;;;;4943187;29;20092;-62
2023/05/02 06:37:02;;;;;;;8.65;3.17;;;;;;;;;;4928202;28;20466;-63
2023/05/02 06:39:33;;;;;;;7.38;2.92;;;;;;;;;;4930895;29;20064;-63
2023/05/02 06:42:04;;;;;;;6.60;3.00;;;;;;;;;;4936673;29;20052;-62
2023/05/02 06:44:36;;;;;;;7.80;3.17;;;;;;;;;;4921723;29;20390;-63
2023/05/02 06:47:06;;;;;;;9.43;2.92;;;;;;;;;;4953910;28;20074;-63
2023/05/02 06:49:36;;;;;;;8.80;2.95;;;;;;;;;;5008541;28;20058;-63
2023/05/02 06:52:06;;;;;;;5.78;2.72;;;;;;;;;;5018482;28;20505;-63
2023/05/02 06:54:38;;;;;;;7.50;2.55;;;;;;;;;;5028159;28;20064;-63
2023/05/02 06:57:09;;;;;;;5.65;3.25;;;;;;;;;;5028140;28;20517;-63
2023/05/02 06:59:40;;;;;;;6.63;2.50;;;;;;;;;;5012001;28;20069;-63
2023/05/02 07:02:10;;;;;;;10.18;2.35;;;;;;;;;;5011634;28;20060;-64
2023/05/02 07:04:41;;;;;;;7.43;3.03;;;;;;;;;;5028191;28;20163;-63
2023/05/02 07:07:11;;;;;;;8.70;2.85;;;;;;;;;;5011164;28;20084;-63
2023/05/02 07:09:41;;;;;;;7.22;2.75;;;;;;;;;;5028032;28;20100;-63
2023/05/02 07:12:11;;;;;;;6.70;2.58;;;;;;;;;;5027736;28;20060;-63
2023/05/02 07:14:41;;;;;;;5.68;2.67;;;;;;;;;;5027901;28;20045;-63
2023/05/02 07:17:11;;;;;;;8.32;3.15;;;;;;;;;;5037318;28;20628;-63
2023/05/02 07:19:41;;;;;;;4.60;2.75;;;;;;;;;;5067789;28;20067;-63
2023/05/02 07:22:13;;;;;;;7.53;2.92;;;;;;;;;;5087707;28;20056;-63
2023/05/02 07:24:43;;;;;;;5.32;2.83;;;;;;;;;;5108404;28;20048;-63
2023/05/02 07:27:13;;;;;;;6.85;3.40;;;;;;;;;;5050655;28;20057;-62
2023/05/02 07:29:43;;;;;;;5.68;2.80;;;;;;;;;;5034455;28;20059;-64
2023/05/02 07:32:13;;;;;;;7.38;3.00;;;;;;;;;;5067656;28;20060;-63
2023/05/02 07:34:44;;;;;;;8.00;2.67;;;;;;;;;;5067506;28;20140;-63
2023/05/02 07:37:14;;;;;;;6.28;2.67;;;;;;;;;;5069417;28;20044;-62
2023/05/02 07:39:44;;;;;;;5.10;3.00;;;;;;;;;;5071239;28;20053;-63
2023/05/02 07:42:14;;;;;;;5.63;3.17;;;;;;;;;;5071248;28;20056;-63
2023/05/02 07:44:44;;;;;;;7.97;3.42;;;;;;;;;;5071056;28;20157;-63
2023/05/02 07:47:14;;;;;;;6.63;2.65;;;;;;;;;;5022369;28;20068;-63
2023/05/02 07:49:44;;;;;;;6.53;2.65;;;;;;;;;;5071164;28;20057;-62
2023/05/02 07:52:14;;;;;;;10.48;3.40;;;;;;;;;;5070654;28;20068;-63
2023/05/02 07:54:44;;;;;;;8.02;3.30;;;;;;;;;;5014723;28;20515;-63
2023/05/02 07:57:14;;;;;;;6.05;2.80;;;;;;;;;;5074681;28;20056;-62
2023/05/02 07:59:44;;;;;;;7.90;2.90;;;;;;;;;;5041028;28;20052;-64
2023/05/02 08:02:18;;;;;;;5.22;2.50;;;;;;;;;;5090895;28;20504;-63
2023/05/02 08:04:49;;;;;;;8.38;2.78;;;;;;;;;;5095056;27;20058;-63
2023/05/02 08:07:20;;;;;;;7.50;3.35;;;;;;;;;;5082911;27;20055;-62
2023/05/02 08:09:50;;;;;;;13.75;3.05;;;;;;;;;;5081551;27;20055;-64
2023/05/02 08:12:21;;;;;;;7.20;3.03;;;;;;;;;;5080768;27;20055;-63
2023/05/02 08:14:51;;;;;;;7.68;2.85;;;;;;;;;;5080729;27;20043;-63
2023/05/02 08:17:21;;;;;;;7.72;2.72;;;;;;;;;;5134287;27;20055;-63
2023/05/02 08:19:52;;;;;;;8.70;2.83;;;;;;;;;;5134172;27;20051;-63
2023/05/02 08:22:22;;;;;;;7.25;3.15;;;;;;;;;;5134065;27;20406;-63
2023/05/02 08:24:52;;;;;;;6.70;2.67;;;;;;;;;;5097395;27;20491;-63
2023/05/02 08:27:23;;;;;;;6.68;2.95;;;;;;;;;;5082796;27;20051;-63
2023/05/02 08:29:53;;;;;;;8.75;2.80;;;;;;;;;;5134065;27;20043;-63
2023/05/02 08:32:25;;;;;;;;;;;;;;;;;;5134510;27;20050;-63
2023/05/02 08:34:58;;;;;;;4.55;2.67;;;;;;;;;;5097306;27;19926;-63
2023/05/02 08:37:30;;;;;;;7.78;2.88;;;;;;;;;;5097356;27;20051;-63
2023/05/02 08:40:00;;;;;;;5.40;2.72;;;;;;;;;;5065154;27;20051;-63
2023/05/02 08:42:33;;;;;;;6.03;2.65;;;;;;;;;;5090018;28;20055;-63
2023/05/02 08:45:05;;;;;;;8.32;2.85;;;;;;;;;;5069732;28;20049;-63
2023/05/02 08:47:37;;;;;;;6.72;3.30;;;;;;;;;;5051875;28;20045;-63
2023/05/02 08:50:11;;;;;;;6.50;2.97;;;;;;;;;;5034991;28;20053;-63
2023/05/02 08:52:45;;;;;;;7.10;2.83;;;;;;;;;;5069807;28;20052;-62
2023/05/02 08:55:15;;;;;;;7.25;2.83;;;;;;;;;;5069818;28;20068;-63
2023/05/02 08:57:47;;;;;;;5.80;3.25;;;;;;;;;;4987607;28;20048;-63
2023/05/02 09:00:17;;;;;;;7.10;3.03;;;;;;;;;;5069729;28;20067;-63
2023/05/02 09:03:23;;;;;;;8.40;3.33;;;;;;;;;;5036232;28;20064;-63
2023/05/02 09:06:15;;;;;;;9.48;4.05;;;;;;;;;;5021452;28;20564;-63
2023/05/02 09:08:51;;;;;;;14.32;3.38;;;;;;;;;;5036886;28;20056;-63
2023/05/02 09:11:21;;;;;;;5.38;3.00;;;;;;;;;;5052581;28;20065;-63
2023/05/02 09:13:51;;;;;;;7.28;3.15;;;;;;;;;;5049151;28;20053;-62
2023/05/02 09:16:25;;;;;;;6.15;3.20;;;;;;;;;;5049410;28;20164;-63
2023/05/02 09:18:58;;;;;;;6.00;3.20;;;;;;;;;;5049315;28;20068;-63
2023/05/02 09:21:40;;;;;;;6.35;3.20;;;;;;;;;;5089247;28;20074;-62
2023/05/02 09:24:18;;;;;;;6.10;2.80;;;;;;;;;;5089500;28;20089;-63
2023/05/02 09:27:04;;;;;;;6.45;3.10;;;;;;;;;;5055775;28;20051;-62
2023/05/02 09:29:34;;;;;;;5.78;2.75;;;;;;;;;;5089368;28;20179;-63
2023/05/02 09:32:05;;;;;;;7.30;3.00;;;;;;;;;;5038950;28;20047;-63
2023/05/02 09:34:38;;;;;;;7.50;2.92;;;;;;;;;;5088971;28;20083;-63
2023/05/02 09:37:09;;;;;;;6.63;2.97;;;;;;;;;;5056102;28;20417;-63
2023/05/02 09:39:39;;;;;;;7.63;2.80;;;;;;;;;;5072888;28;20056;-63
2023/05/02 09:42:09;;;;;;;8.07;3.15;;;;;;;;;;5088997;28;20516;-63
2023/05/02 09:44:41;;;;;;;6.72;3.15;;;;;;;;;;5089303;28;20056;-62
2023/05/02 09:47:25;;;;;;;10.57;3.45;;;;;;;;;;5088723;28;20048;-62
2023/05/02 09:49:56;;;;;;;8.45;3.60;;;;;;;;;;5072434;28;20188;-64
2023/05/02 09:52:26;;;;;;;10.23;3.83;;;;;;;;;;5108628;27;20051;-62
2023/05/02 09:54:55;;;;;;;6.90;2.80;;;;;;;;;;5131860;27;20043;-63
2023/05/02 09:57:41;;;;;;;7.55;3.58;;;;;;;;;;5132084;27;20399;-62
2023/05/02 10:00:14;;;;;;;10.18;3.47;;;;;;;;;;5131654;27;20035;-62
2023/05/02 10:02:49;;;;;;;8.48;3.40;;;;;;;;;;5078660;27;20064;-62
2023/05/02 10:05:20;;;;;;;7.50;3.30;;;;;;;;;;5078440;27;20051;-62
2023/05/02 10:07:50;;;;;;;9.20;3.83;;;;;;;;;;5132009;27;20042;-62
2023/05/02 10:10:20;;;;;;;8.38;3.60;;;;;;;;;;5131707;27;20047;-62
2023/05/02 10:12:53;;;;;;;7.97;3.50;;;;;;;;;;5095667;27;20047;-62
2023/05/02 10:15:26;;;;;;;6.03;3.15;;;;;;;;;;5131717;27;20486;-62
2023/05/02 10:18:00;;;;;;;6.10;2.80;;;;;;;;;;5131626;27;20051;-62
2023/05/02 10:20:36;;;;;;;8.23;3.78;;;;;;;;;;5131421;27;20039;-62
2023/05/02 10:23:06;;;;;;;8.75;3.25;;;;;;;;;;5131519;27;20043;-63
2023/05/02 10:25:36;;;;;;;6.95;3.10;;;;;;;;;;5047039;27;20055;-62
2023/05/02 10:28:07;;;;;;;8.63;3.70;;;;;;;;;;5083920;28;20052;-62
2023/05/02 10:30:38;;;;;;;8.18;3.58;;;;;;;;;;5050761;28;20539;-62
2023/05/02 10:33:08;;;;;;;9.90;3.80;;;;;;;;;;5014197;28;20088;-62
2023/05/02 10:35:43;;;;;;;10.98;3.78;;;;;;;;;;5047759;28;20053;-62
2023/05/02 10:38:20;;;;;;;8.95;3.42;;;;;;;;;;5048147;28;20049;-62
2023/05/02 10:41:06;;;;;;;6.70;3.63;;;;;;;;;;5027605;28;20050;-62
2023/05/02 10:43:37;;;;;;;12.25;4.22;;;;;;;;;;5027964;28;20072;-63
2023/05/02 10:46:33;;;;;;;8.10;3.97;;;;;;;;;;5028055;28;20053;-64
2023/05/02 10:49:08;;;;;;;10.63;4.32;;;;;;;;;;5027971;28;20049;-63
2023/05/02 10:51:43;;;;;;;14.00;4.60;;;;;;;;;;5027953;28;20045;-62
2023/05/02 10:54:23;;;;;;;8.77;4.60;;;;;;;;;;4991979;28;20050;-62
2023/05/02 10:57:02;;;;;;;16.30;5.03;;;;;;;;;;5008452;28;20061;-62
2023/05/02 10:59:36;;;;;;;12.55;6.18;;;;;;;;;;5007885;28;20506;-62
2023/05/02 11:02:26;;;;;;;13.60;6.45;;;;;;;;;;5007774;28;20540;-62
2023/05/02 11:05:04;;;;;;;10.48;4.88;;;;;;;;;;4998421;28;20049;-62
2023/05/02 11:07:36;;;;;;;9.07;5.00;;;;;;;;;;5047539;28;20048;-62
2023/05/02 11:10:21;;;;;;;;;;;;;;;;;;5031869;28;20408;-62
2023/05/02 11:13:00;;;;;;;12.13;3.83;;;;;;;;;;5050460;28;19928;-63
2023/05/02 11:15:32;;;;;;;7.28;4.05;;;;;;;;;;5051193;28;20056;-63
2023/05/02 11:18:07;;;;;;;12.90;4.38;;;;;;;;;;5040533;28;20512;-63
2023/05/02 11:20:46;;;;;;;8.27;4.20;;;;;;;;;;5021743;28;20052;-63
2023/05/02 11:23:20;;;;;;;7.93;3.78;;;;;;;;;;5071418;28;20044;-63
2023/05/02 11:25:59;;;;;;;7.70;3.92;;;;;;;;;;5071193;28;20060;-63
2023/05/02 11:28:36;;;;;;;8.35;4.25;;;;;;;;;;5037790;28;20610;-63
2023/05/02 11:31:29;;;;;;;6.72;3.83;;;;;;;;;;5079234;28;20066;-63
2023/05/02 11:34:01;;;;;;;9.05;5.28;;;;;;;;;;5095021;28;20442;-63
2023/05/02 11:36:33;;;;;;;12.80;4.05;;;;;;;;;;5038293;28;20056;-63
2023/05/02 11:39:06;;;;;;;9.07;4.30;;;;;;;;;;5073462;28;20053;-63
2023/05/02 11:41:43;;;;;;;10.30;3.70;;;;;;;;;;5038050;28;20543;-65
2023/05/02 11:44:13;;;;;;;9.18;3.85;;;;;;;;;;5073444;28;20059;-63
2023/05/02 11:46:44;;;;;;;5.82;3.40;;;;;;;;;;5037976;28;20500;-63
2023/05/02 11:49:14;;;;;;;4.60;2.38;;;;;;;;;;5070964;28;20053;-63
2023/05/02 11:51:44;;;;;;;5.35;2.13;;;;;;;;;;5053831;28;20048;-64
2023/05/02 11:54:24;;;;;;;4.25;2.58;;;;;;;;;;5053978;28;20059;-63
2023/05/02 11:56:54;;;;;;;6.53;2.30;;;;;;;;;;5010871;28;20069;-63
2023/05/02 11:59:24;;;;;;;4.97;2.13;;;;;;;;;;5010869;28;20053;-62
2023/05/02 12:01:56;;;;;;;4.53;1.98;;;;;;;;;;4975296;28;20054;-63
2023/05/02 12:04:27;;;;;;;;;;;;;;;;;;5010928;28;20054;-63
2023/05/02 12:06:57;;;;;;;4.07;2.38;;;;;;;;;;4993730;28;20279;-63
2023/05/02 12:09:27;;;;;;;5.45;2.13;;;;;;;;;;4978165;28;20321;-63
2023/05/02 12:11:58;;;;;;;4.13;2.10;;;;;;;;;;4977717;28;20065;-63
2023/05/02 12:14:29;;;;;;;4.53;2.50;;;;;;;;;;5010140;28;20604;-64
2023/05/02 12:17:00;;;;;;;3.75;1.98;;;;;;;;;;5010275;28;20058;-62
2023/05/02 12:19:30;;;;;;;4.65;2.22;;;;;;;;;;5010450;28;20058;-63
2023/05/02 12:22:00;;;;;;;5.40;2.53;;;;;;;;;;4977894;28;20049;-63
2023/05/02 12:24:30;;;;;;;3.47;2.17;;;;;;;;;;4969954;28;20541;-63
2023/05/02 12:27:11;;;;;;;4.57;2.00;;;;;;;;;;5029835;28;20057;-62
2023/05/02 12:29:47;;;;;;;4.70;2.40;;;;;;;;;;5030533;28;20049;-63
2023/05/02 12:32:33;;;;;;;4.35;2.30;;;;;;;;;;5033475;28;20448;-63
2023/05/02 12:35:04;;;;;;;4.15;2.25;;;;;;;;;;5031084;28;20044;-63
2023/05/02 12:37:34;;;;;;;3.72;2.22;;;;;;;;;;5092628;28;20119;-63
2023/05/02 12:40:15;;;;;;;5.10;2.13;;;;;;;;;;5092387;28;20048;-63
2023/05/02 12:43:00;;;;;;;4.60;2.20;;;;;;;;;;5073464;28;20048;-63
2023/05/02 12:45:33;;;;;;;4.00;2.20;;;;;;;;;;5039950;28;20060;-62
2023/05/02 12:48:27;;;;;;;5.75;2.67;;;;;;;;;;5073343;28;20059;-63
2023/05/02 12:50:57;;;;;;;5.95;2.75;;;;;;;;;;4993855;28;20514;-64
2023/05/02 12:53:44;;;;;;;5.70;2.47;;;;;;;;;;5009925;28;20062;-63
2023/05/02 12:56:15;;;;;;;4.90;2.30;;;;;;;;;;4961352;28;20065;-62
2023/05/02 12:58:49;;;;;;;6.00;2.47;;;;;;;;;;4957753;28;20059;-63
2023/05/02 13:01:19;;;;;;;6.60;3.00;;;;;;;;;;4971155;28;20173;-63
2023/05/02 13:03:52;;;;;;;6.10;3.47;;;;;;;;;;5009812;28;20053;-63
2023/05/02 13:06:22;;;;;;;6.72;3.30;;;;;;;;;;5009849;28;20061;-62
2023/05/02 13:08:52;;;;;;;8.10;3.28;;;;;;;;;;4993186;28;20053;-64
2023/05/02 13:11:23;;;;;;;5.35;3.33;;;;;;;;;;4977238;28;20054;-63
2023/05/02 13:13:53;;;;;;;10.02;4.32;;;;;;;;;;5009516;28;20398;-63
2023/05/02 13:16:24;;;;;;;6.70;3.60;;;;;;;;;;5009721;28;20061;-63
2023/05/02 13:18:55;;;;;;;6.15;3.28;;;;;;;;;;5007124;28;20042;-62
2023/05/02 13:21:25;;;;;;;6.18;3.45;;;;;;;;;;5009523;28;20058;-63
2023/05/02 13:23:55;;;;;;;4.35;2.65;;;;;;;;;;5009262;28;20076;-63
2023/05/02 13:26:25;;;;;;;4.65;2.63;;;;;;;;;;4960352;28;20065;-64
2023/05/02 13:28:55;;;;;;;6.45;2.95;;;;;;;;;;5043667;28;20503;-63
2023/05/02 13:31:25;;;;;;;5.22;2.60;;;;;;;;;;5035888;28;20052;-63
2023/05/02 13:33:55;;;;;;;5.40;1.88;;;;;;;;;;5068174;28;20056;-63
2023/05/02 13:36:25;;;;;;;4.78;2.00;;;;;;;;;;5088132;28;20051;-62
2023/05/02 13:38:56;;;;;;;6.93;2.60;;;;;;;;;;5056748;28;20059;-63
2023/05/02 13:41:26;;;;;;;7.88;2.40;;;;;;;;;;5039009;28;20071;-63
2023/05/02 13:43:56;;;;;;;4.70;2.53;;;;;;;;;;5038860;28;20392;-63
2023/05/02 13:46:26;;;;;;;4.07;2.25;;;;;;;;;;5088787;28;20063;-63
2023/05/02 13:48:57;;;;;;;6.72;2.08;;;;;;;;;;5089025;28;20040;-62
2023/05/02 13:51:27;;;;;;;6.15;2.40;;;;;;;;;;5068073;28;20500;-63
2023/05/02 13:53:58;;;;;;;4.65;2.33;;;;;;;;;;5051670;28;20051;-62
2023/05/02 13:56:28;;;;;;;4.10;2.20;;;;;;;;;;5077716;28;20063;-63
2023/05/02 13:58:58;;;;;;;5.03;1.90;;;;;;;;;;5088647;28;20419;-63
2023/05/02 14:01:28;;;;;;;8.85;2.50;;;;;;;;;;5088689;28;20056;-62
2023/05/02 14:03:58;;;;;;;7.28;2.63;;;;;;;;;;5088640;28;20056;-62
2023/05/02 14:06:30;;;;;;;4.93;2.63;;;;;;;;;;5088703;28;20052;-63
2023/05/02 14:09:01;;;;;;;9.20;2.83;;;;;;;;;;5038399;28;20060;-63
2023/05/02 14:11:31;;;;;;;5.70;2.20;;;;;;;;;;5055507;28;20060;-63
2023/05/02 14:14:01;;;;;;;4.15;1.65;;;;;;;;;;5071784;28;20052;-63
2023/05/02 14:16:33;;;;;;;5.07;2.08;;;;;;;;;;5088398;28;20052;-63
2023/05/02 14:19:04;;;;;;;4.70;1.83;;;;;;;;;;5088587;28;20052;-63
2023/05/02 14:21:36;;;;;;;4.18;1.98;;;;;;;;;;5055523;28;20060;-63
2023/05/02 14:24:06;;;;;;;5.15;2.20;;;;;;;;;;5071822;28;20059;-64
2023/05/02 14:26:36;;;;;;;6.57;2.40;;;;;;;;;;5088451;28;20055;-64
2023/05/02 14:29:07;;;;;;;7.78;2.50;;;;;;;;;;5099899;28;20059;-63
2023/05/02 14:31:37;;;;;;;7.80;2.60;;;;;;;;;;5111207;28;20054;-63
2023/05/02 14:34:08;;;;;;;4.45;1.60;;;;;;;;;;5074579;28;20736;-62
2023/05/02 14:36:38;;;;;;;3.78;1.33;;;;;;;;;;5114568;28;20043;-63
2023/05/02 14:39:08;;;;;;;5.03;1.73;;;;;;;;;;5020524;28;20047;-64
2023/05/02 14:41:38;;;;;;;5.82;1.73;;;;;;;;;;5076167;28;20047;-63
2023/05/02 14:44:08;;;;;;;3.60;1.90;;;;;;;;;;5074950;28;20048;-63
2023/05/02 14:46:38;;;;;;;5.47;1.70;;;;;;;;;;5112140;28;20059;-63
2023/05/02 14:49:08;;;;;;;5.25;1.90;;;;;;;;;;5115460;28;20047;-63
2023/05/02 14:51:38;;;;;;;3.35;1.50;;;;;;;;;;5115000;28;20050;-63
2023/05/02 14:54:08;;;;;;;3.85;1.63;;;;;;;;;;5095950;28;20051;-63
2023/05/02 14:56:39;;;;;;;4.45;1.38;;;;;;;;;;5127451;27;20051;-62
2023/05/02 14:59:10;;;;;;;3.22;1.77;;;;;;;;;;5133281;27;20544;-63
2023/05/02 15:01:40;;;;;;;5.40;1.90;;;;;;;;;;5098991;27;20047;-62
2023/05/02 15:04:10;;;;;;;3.25;2.33;;;;;;;;;;5127591;27;20389;-63
2023/05/02 15:06:40;;;;;;;2.20;1.23;;;;;;;;;;5082007;27;20047;-62
2023/05/02 15:09:11;;;;;;;3.50;1.33;;;;;;;;;;5099174;27;20054;-63
2023/05/02 15:11:41;;;;;;;3.28;1.50;;;;;;;;;;5091360;28;20048;-63
2023/05/02 15:14:12;;;;;;;3.20;1.33;;;;;;;;;;5041454;28;20500;-63
2023/05/02 15:16:42;;;;;;;4.55;1.30;;;;;;;;;;5091673;28;20059;-63
2023/05/02 15:19:12;;;;;;;4.63;1.42;;;;;;;;;;5057958;28;20056;-63